Time;durP1;ratioP1;P1;durP2;ratioP2;P2;SDS_P1;SDS_P2;PMS_P1;PMS_P2;Temp;Humidity;BMP_temperature;BMP_pressure;BME280_temperature;BME280_humidity;BME280_pressure;Samples;Min_cycle;Max_cycle;Signal;HPM_P1;HPM_P2
2021/01/31 00:00:45;;;;;;;22.00;15.65;;;1.10;86.30;;;;;;5032715;28;20044;-73
2021/01/31 00:03:21;;;;;;;22.35;14.98;;;1.10;86.20;;;;;;5030075;28;20069;-73
2021/01/31 00:05:47;;;;;;;22.70;15.70;;;1.00;86.20;;;;;;5032564;28;20043;-73
2021/01/31 00:08:15;;;;;;;22.20;15.02;;;1.00;86.40;;;;;;5032760;28;20422;-72
2021/01/31 00:10:42;;;;;;;22.73;15.55;;;1.00;86.60;;;;;;5031655;28;20037;-78
2021/01/31 00:13:09;;;;;;;21.77;15.63;;;0.90;86.60;;;;;;5034027;28;20103;-72
2021/01/31 00:15:39;;;;;;;22.75;15.48;;;0.90;86.70;;;;;;5030416;28;20156;-74
2021/01/31 00:18:06;;;;;;;22.83;15.45;;;0.90;86.70;;;;;;5032733;28;20605;-74
2021/01/31 00:20:33;;;;;;;22.63;15.50;;;0.90;86.60;;;;;;5031861;28;20048;-73
2021/01/31 00:22:59;;;;;;;21.88;15.10;;;0.90;86.80;;;;;;5033153;28;20029;-75
2021/01/31 00:25:25;;;;;;;23.48;15.60;;;0.90;86.70;;;;;;5032909;28;20557;-72
2021/01/31 00:27:51;;;;;;;23.48;15.73;;;0.90;86.80;;;;;;5029771;28;20393;-72
2021/01/31 00:30:33;;;;;;;22.23;15.25;;;0.90;87.10;;;;;;5028967;28;20044;-73
2021/01/31 00:32:59;;;;;;;22.13;15.50;;;0.90;86.90;;;;;;5035482;28;20071;-75
2021/01/31 00:35:27;;;;;;;23.25;16.38;;;0.80;87.00;;;;;;5031570;28;20086;-74
2021/01/31 00:37:53;;;;;;;24.48;16.45;;;0.80;87.00;;;;;;5032966;28;20055;-73
2021/01/31 00:40:20;;;;;;;23.23;15.70;;;0.80;87.00;;;;;;5028003;28;20029;-74
2021/01/31 00:42:46;;;;;;;21.55;14.85;;;0.80;87.00;;;;;;5032818;28;20476;-71
2021/01/31 00:45:17;;;;;;;23.35;16.10;;;0.80;87.00;;;;;;5032781;28;20037;-71
2021/01/31 00:47:43;;;;;;;24.17;15.50;;;0.80;87.10;;;;;;5030616;28;20712;-72
2021/01/31 00:50:14;;;;;;;23.02;15.68;;;0.80;86.90;;;;;;5034812;28;20033;-74
2021/01/31 00:52:39;;;;;;;22.00;15.48;;;0.90;86.60;;;;;;5035469;28;20882;-71
2021/01/31 00:55:05;;;;;;;24.55;15.90;;;0.90;86.90;;;;;;5041836;28;20039;-70
2021/01/31 00:57:31;;;;;;;21.92;14.65;;;0.90;86.80;;;;;;5031905;28;20775;-75
2021/01/31 00:59:56;;;;;;;22.92;14.13;;;0.80;86.90;;;;;;5027782;28;20041;-76
2021/01/31 01:02:22;;;;;;;22.60;15.48;;;0.80;86.80;;;;;;5028680;28;20381;-73
2021/01/31 01:04:49;;;;;;;22.90;15.38;;;0.80;86.50;;;;;;5033636;28;21612;-73
2021/01/31 01:07:16;;;;;;;22.23;15.05;;;0.80;86.60;;;;;;5029363;28;20055;-76
2021/01/31 01:09:42;;;;;;;23.45;15.85;;;0.70;86.70;;;;;;5030510;28;20037;-73
2021/01/31 01:12:08;;;;;;;21.88;14.15;;;0.70;86.80;;;;;;5028933;28;20047;-76
2021/01/31 01:14:35;;;;;;;24.17;15.93;;;0.60;86.90;;;;;;5031114;28;20124;-72
2021/01/31 01:17:01;;;;;;;22.80;15.85;;;0.60;86.90;;;;;;5029143;28;20102;-73
2021/01/31 01:19:28;;;;;;;22.20;14.50;;;0.70;86.90;;;;;;5030117;28;20065;-73
2021/01/31 01:21:54;;;;;;;23.13;15.35;;;0.70;86.80;;;;;;5033701;28;20045;-76
2021/01/31 01:24:20;;;;;;;23.60;15.77;;;0.60;86.90;;;;;;5031812;28;20120;-73
2021/01/31 01:26:45;;;;;;;24.38;16.23;;;0.60;86.90;;;;;;5030015;28;20041;-72
2021/01/31 01:29:11;;;;;;;22.23;15.93;;;0.60;86.70;;;;;;5031719;28;20624;-74
2021/01/31 01:31:38;;;;;;;21.45;14.55;;;0.60;86.90;;;;;;5029263;28;20033;-73
2021/01/31 01:34:04;;;;;;;22.35;14.98;;;0.60;87.00;;;;;;5033070;28;20075;-72
2021/01/31 01:36:30;;;;;;;23.25;15.55;;;0.60;87.00;;;;;;5032528;28;20048;-74
2021/01/31 01:38:55;;;;;;;23.75;15.70;;;0.60;86.90;;;;;;5032485;28;20029;-74
2021/01/31 01:41:21;;;;;;;23.80;16.38;;;0.60;86.90;;;;;;5030786;28;20488;-72
2021/01/31 01:43:51;;;;;;;24.40;15.60;;;0.50;87.00;;;;;;5033560;28;20036;-72
2021/01/31 01:46:17;;;;;;;22.35;15.27;;;0.50;87.00;;;;;;5031632;28;20041;-76
2021/01/31 01:48:44;;;;;;;24.33;15.45;;;0.50;87.10;;;;;;5038032;28;20033;-73
2021/01/31 01:51:10;;;;;;;25.00;15.80;;;0.50;87.10;;;;;;5041131;28;20112;-74
2021/01/31 01:53:38;;;;;;;24.80;16.52;;;0.40;87.30;;;;;;5040490;28;20421;-71
2021/01/31 01:56:22;;;;;;;23.98;15.73;;;0.50;87.20;;;;;;5037233;28;20107;-74
2021/01/31 01:58:48;;;;;;;24.63;16.60;;;0.40;87.20;;;;;;5030305;28;20044;-70
2021/01/31 02:01:18;;;;;;;23.67;15.45;;;0.40;87.20;;;;;;5031912;28;20057;-72
2021/01/31 02:03:44;;;;;;;23.67;15.27;;;0.40;87.20;;;;;;5031791;28;20705;-72
2021/01/31 02:06:22;;;;;;;22.55;16.30;;;0.40;87.40;;;;;;5031177;28;20034;-72
2021/01/31 02:08:49;;;;;;;24.23;16.45;;;0.40;87.00;;;;;;5030207;28;20040;-76
2021/01/31 02:11:15;;;;;;;22.60;15.30;;;0.40;87.10;;;;;;5030607;28;20040;-74
2021/01/31 02:13:44;;;;;;;24.40;15.98;;;0.40;87.20;;;;;;5042410;28;20041;-73
2021/01/31 02:16:39;;;;;;;23.08;15.27;;;0.40;87.30;;;;;;5029563;28;20021;-72
2021/01/31 02:19:42;;;;;;;25.02;16.60;;;0.30;87.30;;;;;;5015358;28;20096;-70
2021/01/31 02:22:37;;;;;;;26.10;16.73;;;0.30;87.30;;;;;;5032770;28;20091;-71
2021/01/31 02:25:14;;;;;;;22.50;15.80;;;0.30;87.40;;;;;;5019363;28;20102;-71
2021/01/31 02:28:02;;;;;;;25.38;16.27;;;0.30;87.50;;;;;;5036699;28;20075;-70
2021/01/31 02:30:58;;;;;;;24.48;16.05;;;0.30;87.30;;;;;;5033750;28;20052;-73
2021/01/31 02:33:39;;;;;;;25.10;16.50;;;0.20;87.30;;;;;;5031077;28;20464;-75
2021/01/31 02:36:22;;;;;;;24.30;15.82;;;0.20;87.50;;;;;;5029430;28;20392;-74
2021/01/31 02:39:06;;;;;;;25.65;17.02;;;0.20;87.40;;;;;;5031684;28;20037;-74
2021/01/31 02:42:06;;;;;;;27.23;17.25;;;0.20;87.60;;;;;;5031357;28;20057;-71
2021/01/31 02:44:36;;;;;;;25.75;16.35;;;0.20;87.70;;;;;;5027140;28;20025;-74
2021/01/31 02:47:05;;;;;;;28.13;17.77;;;0.10;87.80;;;;;;5027108;28;20057;-74
2021/01/31 02:49:35;;;;;;;28.42;18.90;;;0.10;87.90;;;;;;5027059;28;20556;-73
2021/01/31 02:52:16;;;;;;;27.90;18.33;;;0.10;87.80;;;;;;5028409;28;20029;-72
2021/01/31 02:55:25;;;;;;;28.55;18.55;;;0.10;87.80;;;;;;5028270;28;20393;-73
2021/01/31 02:58:06;;;;;;;28.35;18.58;;;0.10;88.00;;;;;;5021962;28;20045;-72
2021/01/31 03:00:40;;;;;;;26.42;18.10;;;0.10;88.00;;;;;;5031679;28;20053;-71
2021/01/31 03:03:34;;;;;;;27.55;17.08;;;0.10;87.80;;;;;;5029401;28;20041;-73
2021/01/31 03:06:04;;;;;;;28.40;18.10;;;0.00;87.90;;;;;;5030585;28;20415;-76
2021/01/31 03:08:46;;;;;;;28.23;17.98;;;0.00;88.30;;;;;;5029992;28;20037;-72
2021/01/31 03:11:18;;;;;;;26.77;18.52;;;0.00;88.10;;;;;;5030902;28;20033;-75
2021/01/31 03:14:02;;;;;;;27.33;18.13;;;0.00;88.10;;;;;;5032591;28;20045;-71
2021/01/31 03:16:43;;;;;;;28.63;19.08;;;0.00;88.10;;;;;;5030249;28;20078;-71
2021/01/31 03:19:16;;;;;;;29.67;19.30;;;0.00;88.20;;;;;;5030097;28;20040;-72
2021/01/31 03:21:47;;;;;;;30.45;19.15;;;0.00;88.40;;;;;;5031209;28;20725;-74
2021/01/31 03:24:20;;;;;;;29.15;17.98;;;0.00;88.40;;;;;;5029231;28;20119;-72
2021/01/31 03:26:57;;;;;;;29.10;18.90;;;0.00;88.50;;;;;;5030049;28;20040;-75
2021/01/31 03:29:23;;;;;;;28.15;18.73;;;0.00;88.60;;;;;;5026510;28;20036;-73
2021/01/31 03:31:54;;;;;;;28.50;18.30;;;0.00;88.60;;;;;;5034270;28;20033;-75
2021/01/31 03:34:24;;;;;;;30.25;19.45;;;0.00;88.50;;;;;;5032574;28;20060;-75
2021/01/31 03:36:54;;;;;;;31.55;20.00;;;0.00;88.30;;;;;;5032968;28;20087;-71
2021/01/31 03:39:21;;;;;;;29.92;19.63;;;0.00;88.40;;;;;;5031281;28;20045;-73
2021/01/31 03:41:46;;;;;;;29.15;18.67;;;-3276.70;88.50;;;;;;5029383;28;20527;-71
2021/01/31 03:44:12;;;;;;;28.20;18.98;;;0.00;88.40;;;;;;5030397;28;20111;-71
2021/01/31 03:47:07;;;;;;;28.13;19.10;;;0.00;88.30;;;;;;5029973;28;20536;-72
2021/01/31 03:49:43;;;;;;;28.83;19.75;;;0.00;88.40;;;;;;5026600;28;20041;-72
2021/01/31 03:52:09;;;;;;;29.40;18.27;;;0.00;88.30;;;;;;5027928;28;20072;-72
2021/01/31 03:54:34;;;;;;;28.58;17.95;;;-3276.70;88.40;;;;;;5028896;28;20041;-73
2021/01/31 03:57:30;;;;;;;28.58;20.20;;;-3276.70;88.50;;;;;;5030954;28;20463;-74
2021/01/31 04:00:05;;;;;;;;;;;-3276.70;88.50;;;;;;5022426;28;20067;-73
2021/01/31 04:02:35;;;;;;;33.58;20.10;;;0.00;88.50;;;;;;5031559;28;19917;-75
2021/01/31 04:05:04;;;;;;;29.58;18.40;;;-3276.70;88.50;;;;;;5032301;28;20072;-73
2021/01/31 04:07:37;;;;;;;30.55;19.42;;;-3276.60;88.50;;;;;;5030203;28;20106;-73
2021/01/31 04:10:05;;;;;;;31.83;20.13;;;-3276.60;88.70;;;;;;5036126;28;20037;-71
2021/01/31 04:12:39;;;;;;;28.95;19.40;;;-3276.60;88.70;;;;;;5030475;28;20060;-70
2021/01/31 04:15:16;;;;;;;30.45;20.73;;;-3276.60;88.70;;;;;;5028735;28;20033;-75
2021/01/31 04:17:46;;;;;;;29.55;20.25;;;-3276.60;88.80;;;;;;5025951;28;20045;-72
2021/01/31 04:20:12;;;;;;;30.20;19.13;;;-3276.60;88.70;;;;;;5028036;28;20041;-71
2021/01/31 04:22:38;;;;;;;32.10;20.00;;;-3276.60;88.80;;;;;;5027960;28;20037;-76
2021/01/31 04:25:04;;;;;;;31.35;20.40;;;-3276.60;88.80;;;;;;5029440;28;20056;-72
2021/01/31 04:27:30;;;;;;;30.05;19.17;;;-3276.60;88.80;;;;;;5029576;28;20059;-75
2021/01/31 04:29:55;;;;;;;32.30;19.58;;;-3276.60;88.80;;;;;;5030017;28;20212;-74
2021/01/31 04:32:21;;;;;;;30.05;19.73;;;-3276.60;88.70;;;;;;5038635;28;20070;-73
2021/01/31 04:34:47;;;;;;;31.25;19.92;;;-3276.50;88.60;;;;;;5030434;28;20137;-74
2021/01/31 04:37:13;;;;;;;30.50;20.15;;;-3276.60;88.70;;;;;;5025559;28;20025;-76
2021/01/31 04:39:39;;;;;;;29.77;19.33;;;-3276.60;88.80;;;;;;5029150;28;20037;-74
2021/01/31 04:42:07;;;;;;;29.48;19.80;;;-3276.60;88.50;;;;;;5031843;28;20029;-74
2021/01/31 04:44:32;;;;;;;32.05;20.15;;;-3276.60;88.60;;;;;;5040696;28;21928;-72
2021/01/31 04:47:14;;;;;;;31.15;19.20;;;-3276.50;88.60;;;;;;5026852;28;20045;-74
2021/01/31 04:49:42;;;;;;;32.72;21.13;;;-3276.50;88.50;;;;;;5027080;28;20171;-74
2021/01/31 04:52:29;;;;;;;31.27;20.00;;;-3276.50;88.70;;;;;;5025401;28;20456;-76
2021/01/31 04:55:29;;;;;;;30.40;19.90;;;-3276.50;88.60;;;;;;5029416;28;20064;-72
2021/01/31 04:58:17;;;;;;;33.28;20.30;;;-3276.50;88.70;;;;;;5030059;28;20476;-73
2021/01/31 05:00:56;;;;;;;30.15;19.95;;;-3276.40;88.80;;;;;;5034889;28;20049;-72
2021/01/31 05:03:24;;;;;;;28.83;20.38;;;-3276.40;89.00;;;;;;5031034;28;20037;-76
2021/01/31 05:05:56;;;;;;;34.72;20.75;;;-3276.50;88.90;;;;;;5033849;28;20029;-73
2021/01/31 05:08:26;;;;;;;32.45;20.63;;;-3276.40;88.80;;;;;;5029001;28;20728;-71
2021/01/31 05:10:59;;;;;;;30.95;19.95;;;-3276.40;88.80;;;;;;5031861;28;20451;-75
2021/01/31 05:13:50;;;;;;;33.30;21.35;;;-3276.40;88.80;;;;;;5031529;28;20084;-75
2021/01/31 05:16:16;;;;;;;31.77;20.50;;;-3276.40;88.80;;;;;;5031440;28;20392;-75
2021/01/31 05:18:56;;;;;;;32.92;21.10;;;-3276.40;88.90;;;;;;5031193;28;20036;-75
2021/01/31 05:21:26;;;;;;;34.35;22.75;;;-3276.40;89.00;;;;;;5031385;28;20630;-72
2021/01/31 05:24:16;;;;;;;35.28;21.67;;;-3276.40;88.90;;;;;;5032992;28;20052;-73
2021/01/31 05:26:47;;;;;;;31.63;20.77;;;-3276.40;88.80;;;;;;5032127;28;20041;-71
2021/01/31 05:29:19;;;;;;;30.38;19.30;;;-3276.30;88.80;;;;;;5032468;28;20038;-73
2021/01/31 05:32:03;;;;;;;30.88;21.65;;;-3276.30;88.90;;;;;;5030226;28;20136;-72
2021/01/31 05:34:32;;;;;;;33.65;21.65;;;-3276.30;88.90;;;;;;5037024;28;20056;-74
2021/01/31 05:37:04;;;;;;;33.85;21.50;;;-3276.30;89.00;;;;;;5036297;28;20052;-71
2021/01/31 05:39:43;;;;;;;31.63;21.10;;;-3276.30;89.10;;;;;;5033907;28;20048;-75
2021/01/31 05:42:35;;;;;;;31.30;20.38;;;-3276.30;89.00;;;;;;5033533;28;20044;-74
2021/01/31 05:45:13;;;;;;;32.13;20.63;;;-3276.30;89.10;;;;;;5036276;28;20033;-72
2021/01/31 05:47:41;;;;;;;32.28;21.00;;;-3276.20;89.10;;;;;;5037375;28;20116;-73
2021/01/31 05:50:35;;;;;;;31.88;21.33;;;-3276.20;89.20;;;;;;5033591;28;20037;-73
2021/01/31 05:53:21;;;;;;;31.08;20.73;;;-3276.20;89.30;;;;;;5050645;28;20041;-75
2021/01/31 05:55:46;;;;;;;29.25;19.95;;;-3276.20;89.10;;;;;;5035859;28;20029;-76
2021/01/31 05:58:21;;;;;;;32.45;20.65;;;-3276.20;89.10;;;;;;5034961;28;20439;-77
2021/01/31 06:01:02;;;;;;;33.00;20.90;;;-3276.10;89.30;;;;;;5035473;28;20076;-73
2021/01/31 06:03:27;;;;;;;33.13;21.35;;;-3276.20;89.20;;;;;;5034029;28;20045;-74
2021/01/31 06:06:14;;;;;;;33.65;22.17;;;-3276.20;89.20;;;;;;5038015;28;20566;-73
2021/01/31 06:08:46;;;;;;;31.92;21.95;;;-3276.10;89.00;;;;;;5037087;28;20472;-76
2021/01/31 06:11:25;;;;;;;31.88;21.02;;;-3276.10;89.20;;;;;;5035133;28;20575;-74
2021/01/31 06:14:14;;;;;;;33.38;21.38;;;-3276.10;89.30;;;;;;5040228;28;20045;-74
2021/01/31 06:16:42;;;;;;;34.45;22.10;;;-3276.10;89.40;;;;;;5035756;28;20384;-74
2021/01/31 06:19:22;;;;;;;35.45;20.75;;;-3276.10;89.40;;;;;;5033560;28;20531;-73
2021/01/31 06:21:47;;;;;;;32.80;20.88;;;-3276.10;89.40;;;;;;5033243;28;20059;-74
2021/01/31 06:24:36;;;;;;;35.05;22.42;;;-3276.10;89.30;;;;;;5030214;28;20052;-74
2021/01/31 06:27:03;;;;;;;34.60;21.35;;;-3276.00;89.40;;;;;;5029887;28;20038;-71
2021/01/31 06:29:56;;;;;;;33.58;21.85;;;-3276.00;89.50;;;;;;5032312;28;20406;-73
2021/01/31 06:32:27;;;;;;;34.05;21.85;;;-3276.00;89.30;;;;;;5035632;28;20114;-75
2021/01/31 06:34:57;;;;;;;34.95;22.27;;;-3276.00;89.40;;;;;;5036127;28;20029;-76
2021/01/31 06:38:07;;;;;;;33.00;21.85;;;-3276.00;89.40;;;;;;5032735;28;20025;-74
2021/01/31 06:40:45;;;;;;;37.55;22.58;;;-3276.00;89.40;;;;;;5034366;28;20061;-71
2021/01/31 06:43:16;;;;;;;34.05;21.55;;;-3276.00;89.40;;;;;;5035312;28;20055;-72
2021/01/31 06:45:51;;;;;;;33.45;21.60;;;-3276.00;89.60;;;;;;5032221;28;20515;-73
2021/01/31 06:48:40;;;;;;;35.22;22.77;;;-3275.90;89.70;;;;;;5034754;28;20912;-72
2021/01/31 06:51:22;;;;;;;36.38;22.38;;;-3275.90;89.80;;;;;;5034101;28;20040;-74
2021/01/31 06:54:06;;;;;;;33.25;22.33;;;-3275.90;89.80;;;;;;5035749;28;20127;-74
2021/01/31 06:57:06;;;;;;;33.90;22.40;;;-3276.00;89.80;;;;;;5033211;28;20090;-73
2021/01/31 06:59:56;;;;;;;32.20;20.80;;;-3276.00;89.60;;;;;;5035091;28;20041;-72
2021/01/31 07:02:37;;;;;;;32.92;22.42;;;-3276.00;89.50;;;;;;5035295;28;20052;-73
2021/01/31 07:05:21;;;;;;;35.38;21.45;;;-3276.00;89.60;;;;;;5039366;28;20041;-74
2021/01/31 07:08:08;;;;;;;34.05;21.85;;;-3275.90;89.70;;;;;;5034887;28;20116;-75
2021/01/31 07:10:55;;;;;;;32.45;21.77;;;-3276.00;89.60;;;;;;5033491;28;20041;-72
2021/01/31 07:13:37;;;;;;;30.65;20.88;;;-3276.00;89.50;;;;;;5033872;28;25097;-72
2021/01/31 07:16:19;;;;;;;31.65;21.73;;;-3276.00;89.50;;;;;;5038315;28;20396;-73
2021/01/31 07:18:58;;;;;;;34.78;22.55;;;-3276.00;89.40;;;;;;5034790;28;20472;-75
2021/01/31 07:21:37;;;;;;;37.10;23.70;;;-3276.00;89.50;;;;;;5035632;28;20088;-75
2021/01/31 07:24:12;;;;;;;35.22;22.92;;;-3276.00;89.30;;;;;;5036868;28;20032;-72
2021/01/31 07:26:51;;;;;;;35.40;22.35;;;-3276.00;89.30;;;;;;5039321;28;20037;-74
2021/01/31 07:29:31;;;;;;;35.00;22.13;;;-3276.00;89.30;;;;;;5037037;28;20492;-76
2021/01/31 07:32:00;;;;;;;34.80;22.95;;;-3276.00;89.40;;;;;;5035264;28;20555;-74
2021/01/31 07:34:35;;;;;;;35.65;23.88;;;-3276.00;89.40;;;;;;5037500;28;20487;-73
2021/01/31 07:37:11;;;;;;;37.58;22.95;;;-3276.00;89.40;;;;;;5035734;28;20041;-73
2021/01/31 07:39:55;;;;;;;36.28;25.23;;;-3276.00;89.50;;;;;;5038933;28;20025;-72
2021/01/31 07:42:22;;;;;;;36.70;25.30;;;-3276.00;89.50;;;;;;5039753;28;20044;-72
2021/01/31 07:44:55;;;;;;;34.95;23.52;;;-3276.00;89.60;;;;;;5036544;28;20076;-75
2021/01/31 07:47:24;;;;;;;34.42;22.90;;;-3276.00;89.40;;;;;;5052219;28;23968;-77
2021/01/31 07:49:55;;;;;;;34.05;22.20;;;-3276.00;89.30;;;;;;5039864;28;20033;-72
2021/01/31 07:52:26;;;;;;;30.85;20.88;;;-3276.10;89.20;;;;;;5035057;28;20162;-73
2021/01/31 07:55:38;;;;;;;31.13;20.98;;;-3276.20;88.90;;;;;;5040875;28;20033;-72
2021/01/31 07:58:29;;;;;;;33.20;21.98;;;-3276.20;88.80;;;;;;4956099;28;20696;-73
2021/01/31 08:00:55;;;;;;;33.40;21.35;;;-3276.30;88.90;;;;;;4957469;28;20062;-72
2021/01/31 08:03:39;;;;;;;32.13;21.45;;;-3276.30;88.70;;;;;;5018371;28;20048;-74
2021/01/31 08:06:31;;;;;;;32.63;22.13;;;-3276.30;88.50;;;;;;5037747;28;20036;-73
2021/01/31 08:08:57;;;;;;;32.42;21.52;;;-3276.40;88.60;;;;;;5037924;28;20033;-72
2021/01/31 08:11:25;;;;;;;33.38;21.48;;;-3276.40;88.40;;;;;;5035029;28;20071;-74
2021/01/31 08:13:53;;;;;;;30.98;20.77;;;-3276.40;88.30;;;;;;5038022;28;21047;-73
2021/01/31 08:16:38;;;;;;;34.05;22.05;;;-3276.50;88.30;;;;;;5035114;28;20493;-73
2021/01/31 08:19:07;;;;;;;;;;;-3276.50;88.20;;;;;;5037032;28;20041;-72
2021/01/31 08:21:57;;;;;;;36.63;21.65;;;-3276.50;88.10;;;;;;5037222;28;19921;-75
2021/01/31 08:24:59;;;;;;;31.30;20.38;;;-3276.50;88.00;;;;;;5036231;28;20476;-73
2021/01/31 08:27:37;;;;;;;34.30;22.23;;;-3276.60;87.80;;;;;;5032247;28;20132;-73
2021/01/31 08:30:13;;;;;;;37.45;24.60;;;-3276.60;87.70;;;;;;5036008;28;20384;-73
2021/01/31 08:32:58;;;;;;;35.60;22.55;;;-3276.70;87.80;;;;;;5036230;28;20035;-73
2021/01/31 08:35:28;;;;;;;37.08;24.25;;;-3276.70;87.50;;;;;;5038101;28;20041;-73
2021/01/31 08:38:21;;;;;;;34.03;23.65;;;0.00;87.40;;;;;;5036563;28;20375;-72
2021/01/31 08:41:04;;;;;;;31.88;22.38;;;0.00;87.30;;;;;;5036638;28;20492;-76
2021/01/31 08:43:32;;;;;;;34.58;22.38;;;0.00;87.40;;;;;;5036199;28;20069;-74
2021/01/31 08:46:16;;;;;;;34.17;23.30;;;0.00;87.10;;;;;;5032536;28;20043;-69
2021/01/31 08:48:52;;;;;;;31.08;22.27;;;0.00;87.20;;;;;;5036119;28;20189;-72
2021/01/31 08:51:18;;;;;;;31.42;21.85;;;0.10;87.00;;;;;;5036206;28;20044;-71
2021/01/31 08:53:44;;;;;;;28.10;19.75;;;0.10;86.50;;;;;;5039003;28;20044;-69
2021/01/31 08:56:22;;;;;;;31.42;21.70;;;0.10;86.50;;;;;;5034660;28;20067;-73
2021/01/31 08:58:49;;;;;;;31.15;22.40;;;0.10;86.70;;;;;;5033885;28;20033;-71
2021/01/31 09:01:15;;;;;;;30.13;21.60;;;0.20;86.60;;;;;;5035188;28;21279;-70
2021/01/31 09:03:43;;;;;;;30.73;21.35;;;0.40;86.30;;;;;;5038412;28;21207;-70
2021/01/31 09:06:09;;;;;;;31.20;22.13;;;0.40;85.90;;;;;;5038571;28;20037;-68
2021/01/31 09:08:36;;;;;;;32.13;21.80;;;0.40;86.00;;;;;;5036183;28;21349;-69
2021/01/31 09:11:06;;;;;;;31.10;21.83;;;0.50;85.90;;;;;;5040334;28;20033;-68
2021/01/31 09:13:34;;;;;;;29.52;20.77;;;0.70;85.80;;;;;;5041272;28;20045;-71
2021/01/31 09:16:11;;;;;;;30.08;20.48;;;0.80;85.10;;;;;;5041608;28;20059;-68
2021/01/31 09:18:37;;;;;;;30.98;20.80;;;0.90;84.70;;;;;;5040196;28;20040;-71
2021/01/31 09:21:30;;;;;;;28.08;20.70;;;1.00;84.30;;;;;;5039400;28;20754;-69
2021/01/31 09:23:59;;;;;;;29.85;20.65;;;1.10;84.30;;;;;;5039605;28;20472;-71
2021/01/31 09:26:26;;;;;;;29.20;20.33;;;1.00;84.10;;;;;;5039192;28;20044;-69
2021/01/31 09:28:53;;;;;;;29.00;20.67;;;1.00;84.10;;;;;;5041939;28;20094;-71
2021/01/31 09:31:19;;;;;;;27.60;19.35;;;1.10;84.30;;;;;;5044053;28;20168;-69
2021/01/31 09:33:45;;;;;;;30.42;21.05;;;1.10;84.10;;;;;;5036138;28;20042;-68
2021/01/31 09:36:16;;;;;;;28.45;20.88;;;1.00;83.70;;;;;;5039677;28;20040;-69
2021/01/31 09:38:42;;;;;;;29.10;21.00;;;1.10;84.20;;;;;;5040294;28;20063;-69
2021/01/31 09:41:09;;;;;;;28.52;20.08;;;1.10;84.10;;;;;;5040163;28;20381;-69
2021/01/31 09:43:35;;;;;;;28.38;19.73;;;1.20;84.20;;;;;;5040513;28;20033;-68
2021/01/31 09:46:03;;;;;;;29.55;20.17;;;1.10;83.70;;;;;;5041044;28;20514;-69
2021/01/31 09:48:32;;;;;;;27.98;20.10;;;1.00;84.20;;;;;;5040737;28;20049;-68
2021/01/31 09:51:04;;;;;;;29.13;19.67;;;0.90;84.70;;;;;;5042655;28;20118;-68
2021/01/31 09:53:40;;;;;;;31.25;22.20;;;1.00;85.00;;;;;;5038953;28;20376;-70
2021/01/31 09:56:10;;;;;;;27.65;19.10;;;1.10;84.90;;;;;;5039758;28;20032;-68
2021/01/31 09:58:45;;;;;;;29.98;20.40;;;1.10;84.70;;;;;;5042095;28;20037;-70
2021/01/31 10:01:26;;;;;;;30.38;19.98;;;1.10;84.80;;;;;;5037071;28;20516;-69
2021/01/31 10:04:03;;;;;;;29.95;20.63;;;1.20;84.60;;;;;;5032863;28;20028;-72
2021/01/31 10:06:43;;;;;;;27.88;20.52;;;1.20;84.50;;;;;;5047277;28;20037;-72
2021/01/31 10:09:09;;;;;;;29.50;21.20;;;1.30;84.30;;;;;;5037372;28;20520;-72
2021/01/31 10:11:41;;;;;;;28.35;20.60;;;1.40;84.50;;;;;;5035113;28;20424;-70
2021/01/31 10:14:10;;;;;;;28.40;20.00;;;1.40;84.00;;;;;;5034682;28;20040;-71
2021/01/31 10:16:38;;;;;;;30.77;21.10;;;1.40;84.10;;;;;;5035865;28;20045;-70
2021/01/31 10:19:16;;;;;;;26.40;19.45;;;1.50;84.30;;;;;;5038567;28;20108;-74
2021/01/31 10:21:53;;;;;;;32.70;22.52;;;1.60;84.50;;;;;;5033623;28;20910;-70
2021/01/31 10:24:32;;;;;;;28.30;19.42;;;1.70;84.20;;;;;;5034675;28;20021;-73
2021/01/31 10:27:27;;;;;;;27.75;19.00;;;1.70;84.00;;;;;;5026971;28;20353;-73
2021/01/31 10:29:55;;;;;;;28.13;19.52;;;1.80;83.40;;;;;;5030532;28;20075;-70
2021/01/31 10:32:40;;;;;;;31.13;22.08;;;1.80;83.50;;;;;;5033616;28;20068;-70
2021/01/31 10:35:39;;;;;;;33.03;22.48;;;1.80;83.80;;;;;;5034365;28;20597;-72
2021/01/31 10:38:29;;;;;;;28.60;19.85;;;1.80;84.20;;;;;;4992324;28;20040;-73
2021/01/31 10:40:56;;;;;;;27.90;19.27;;;1.90;84.20;;;;;;5028270;28;20036;-72
2021/01/31 10:43:23;;;;;;;26.80;18.80;;;1.90;83.90;;;;;;5029001;28;20177;-69
2021/01/31 10:45:49;;;;;;;28.63;20.45;;;1.90;83.30;;;;;;5033300;28;20125;-69
2021/01/31 10:48:15;;;;;;;27.10;20.67;;;1.90;83.20;;;;;;5030790;28;20464;-71
2021/01/31 10:50:40;;;;;;;29.35;21.48;;;1.90;83.60;;;;;;5036823;28;20468;-68
2021/01/31 10:53:06;;;;;;;29.45;20.13;;;2.00;83.80;;;;;;5035857;28;20058;-69
2021/01/31 10:55:32;;;;;;;28.35;19.02;;;2.00;83.80;;;;;;5033078;28;20036;-68
2021/01/31 10:57:58;;;;;;;28.13;19.33;;;2.10;83.40;;;;;;5031488;28;20120;-69
2021/01/31 11:00:23;;;;;;;29.42;20.45;;;2.00;83.60;;;;;;5027016;28;20057;-70
2021/01/31 11:02:50;;;;;;;28.85;19.33;;;2.00;83.70;;;;;;5027574;28;20098;-68
2021/01/31 11:05:16;;;;;;;28.52;19.60;;;2.10;84.00;;;;;;5032219;28;20443;-69
2021/01/31 11:07:42;;;;;;;28.77;19.88;;;2.20;84.20;;;;;;5028955;28;20071;-71
2021/01/31 11:10:11;;;;;;;31.25;22.83;;;2.30;83.90;;;;;;5027744;28;20059;-70
2021/01/31 11:12:36;;;;;;;29.40;20.38;;;2.20;83.10;;;;;;5030774;28;20028;-68
2021/01/31 11:15:04;;;;;;;30.10;20.63;;;2.10;83.00;;;;;;5024999;28;20535;-71
2021/01/31 11:17:29;;;;;;;32.08;22.40;;;2.20;83.20;;;;;;5019594;28;20654;-70
2021/01/31 11:19:55;;;;;;;31.02;20.25;;;2.10;83.40;;;;;;5022724;28;20029;-72
2021/01/31 11:22:21;;;;;;;31.65;21.60;;;2.10;83.60;;;;;;5022941;28;20339;-68
2021/01/31 11:24:46;;;;;;;28.45;20.67;;;2.10;83.40;;;;;;5018769;28;20052;-73
2021/01/31 11:27:12;;;;;;;32.38;22.20;;;2.10;83.40;;;;;;5023715;28;20347;-68
2021/01/31 11:29:38;;;;;;;32.50;21.00;;;2.30;83.70;;;;;;5024937;28;20119;-72
2021/01/31 11:32:04;;;;;;;30.48;21.00;;;2.50;83.20;;;;;;5024412;28;20464;-71
2021/01/31 11:34:29;;;;;;;29.90;21.52;;;2.40;82.50;;;;;;5023092;28;20152;-69
2021/01/31 11:36:55;;;;;;;30.25;21.60;;;2.50;82.90;;;;;;5028300;28;20492;-70
2021/01/31 11:39:21;;;;;;;29.02;20.55;;;2.50;83.40;;;;;;5029003;28;20045;-69
2021/01/31 11:41:48;;;;;;;30.33;22.13;;;2.50;83.50;;;;;;5026397;28;20841;-72
2021/01/31 11:44:13;;;;;;;29.05;20.38;;;2.60;83.30;;;;;;5024616;28;20094;-74
2021/01/31 11:46:39;;;;;;;28.50;19.83;;;2.50;82.90;;;;;;5027584;28;20476;-70
2021/01/31 11:49:04;;;;;;;29.92;20.70;;;2.40;83.10;;;;;;5022220;28;20044;-72
2021/01/31 11:51:31;;;;;;;26.45;19.00;;;2.40;82.70;;;;;;5017019;28;20025;-74
2021/01/31 11:53:57;;;;;;;29.70;20.08;;;2.50;83.30;;;;;;5026819;28;20029;-74
2021/01/31 11:56:22;;;;;;;27.15;19.85;;;2.60;83.10;;;;;;5022864;28;20033;-72
2021/01/31 11:58:48;;;;;;;29.80;20.38;;;2.60;83.20;;;;;;5023566;28;20028;-70
2021/01/31 12:01:15;;;;;;;28.63;20.27;;;2.60;83.30;;;;;;5028275;28;20064;-72
2021/01/31 12:03:47;;;;;;;29.95;19.80;;;2.70;83.30;;;;;;5017939;28;20239;-72
2021/01/31 12:06:13;;;;;;;30.55;20.95;;;2.70;83.20;;;;;;5015159;28;20418;-72
2021/01/31 12:08:40;;;;;;;28.45;19.75;;;2.80;83.40;;;;;;5027969;28;20818;-70
2021/01/31 12:11:06;;;;;;;30.17;19.83;;;2.70;83.20;;;;;;5036233;28;20029;-70
2021/01/31 12:13:32;;;;;;;45.28;31.98;;;2.60;83.20;;;;;;5035604;28;20059;-70
2021/01/31 12:15:58;;;;;;;96.82;53.97;;;2.60;83.50;;;;;;5035353;28;20064;-69
2021/01/31 12:18:24;;;;;;;45.85;33.03;;;2.70;83.60;;;;;;5033416;28;20033;-70
2021/01/31 12:20:50;;;;;;;38.60;27.05;;;2.80;83.50;;;;;;5033064;28;20554;-72
2021/01/31 12:23:15;;;;;;;37.90;27.10;;;2.80;83.50;;;;;;5036738;28;20032;-69
2021/01/31 12:25:41;;;;;;;32.38;22.55;;;2.90;83.30;;;;;;5035224;28;20394;-71
2021/01/31 12:28:07;;;;;;;151.65;98.18;;;3.00;83.30;;;;;;5035493;28;20021;-71
2021/01/31 12:30:33;;;;;;;160.48;96.35;;;3.10;83.20;;;;;;5040476;28;20074;-69
2021/01/31 12:33:00;;;;;;;38.38;27.98;;;3.10;82.90;;;;;;5041082;28;20045;-69
2021/01/31 12:35:27;;;;;;;143.07;92.57;;;3.30;83.00;;;;;;5040194;28;20060;-70
2021/01/31 12:37:54;;;;;;;54.78;41.05;;;3.40;82.20;;;;;;5032239;28;20033;-67
2021/01/31 12:40:20;;;;;;;31.38;22.17;;;3.30;82.50;;;;;;5031844;28;20066;-68
2021/01/31 12:42:47;;;;;;;33.05;25.52;;;3.40;82.80;;;;;;5040438;28;20079;-68
2021/01/31 12:45:14;;;;;;;29.55;19.52;;;3.50;82.80;;;;;;5038070;28;20099;-68
2021/01/31 12:47:40;;;;;;;30.75;21.00;;;3.30;81.90;;;;;;5043867;28;20783;-69
2021/01/31 12:50:07;;;;;;;27.17;19.50;;;3.40;82.30;;;;;;5044765;28;20029;-70
2021/01/31 12:52:35;;;;;;;29.50;21.02;;;3.30;82.60;;;;;;5046252;28;20464;-68